AirNav  
 
 1429 users online  

23Y Murdock Municipal Airport
Murdock, Minnesota, USA

GOING TO MURDOCK?


FAA INFORMATION EFFECTIVE 07 DECEMBER 2017

Location

FAA Identifier: 23Y
Lat/Long: 45-13-19.8570N / 095-24-04.0890W
45-13.330950N / 095-24.068150W
45.2221825 / -95.4011358
(estimated)
Elevation: 1082 ft. / 330 m (estimated)
Variation: 05E (1985)
Time zone: UTC -6 (UTC -5 during Daylight Saving Time)
Zip code: 56271

Airport Operations

Airport use: Open to the public
Activation date: 04/1972
Control tower: no
ARTCC: MINNEAPOLIS CENTER
FSS: PRINCETON FLIGHT SERVICE STATION
NOTAMs facility: PNM (NOTAM-D service available)
Attendance: UNATNDD
Wind indicator: yes
Segmented circle: no

Airport Communications

CTAF: 122.9
WX AWOS-3 at BBB (12 nm NW): 118.45 (320-843-3242)
WX AWOS-3 at BDH (13 nm SE): 113.7 (320-235-8287)

Nearby radio navigation aids

VOR radial/distance  VOR name  Freq  Var
BDHr294/13.2WILLMAR VOR/DME113.7004E
MVEr036/19.9MONTEVIDEO VOR/DME111.6005E
MOXr126/31.6MORRIS VOR/DME109.6005E

 
NDB name  Hdg/Dist  Freq  Var  ID
BENSON116/12.323905EBBB -... -... -...
GLENWOOD185/25.634603EGHW --. .... .--
APPLETON086/25.735605EAQP .- --.- .--.
DAWSON/MADISON064/35.934103EDXX -.. -..- -..-

Airport Services

Parking: tiedowns
Airframe service: NONE
Powerplant service: NONE
Bottled oxygen: NONE
Bulk oxygen: NONE

Runway Information

Runway 12/30

Dimensions: 3415 x 150 ft. / 1041 x 46 m
Surface: turf, in good condition
Runway edge markings: RY 12/30 MKD WITH CONES.
RUNWAY 12  RUNWAY 30
Latitude: 45-13.463667N45-13.214833N
Longitude: 095-24.416333W095-23.703167W
Elevation: 1080.0 ft.1080.0 ft.
Gradient: 0.1%0.1%
Traffic pattern: leftleft

Airport Ownership and Management from official FAA records

Ownership: Publicly-owned
Owner: CITY OF MURDOCK
300 FREDERICK ST., P.O. BOX 130
MURDOCK, MN 56271
Phone 320-875-2112
Manager: ADAM SIMMONDS
300 FREDERICK ST, P.O. BOX 130
MURDOCK, MN 56271
Phone 320-875-4841

Airport Operational Statistics

Aircraft operations: avg 42/month *
80% local general aviation
20% transient general aviation
* for 12-month period ending 30 June 2015

Additional Remarks

ARPT NOT PLOWED WINTER MONTHS.

Instrument Procedures

There are no published instrument procedures at 23Y.

Some nearby airports with instrument procedures:

KBBB - Benson Municipal Airport (12 nm NW)
KBDH - Willmar Municipal Airport-John L Rice Fiel (13 nm SE)
KMVE - Montevideo-Chippewa County Airport (20 nm SW)
KAQP - Appleton Municipal Airport (26 nm W)
KGHW - Glenwood Municipal Airport (26 nm N)
 
Loc | Ops | Rwys | IFR | FBO | Links
Com | Nav | Svcs | Stats | Notes


 
Area around 23Y (Murdock Municipal Airport)
 
Road maps at: MapQuest Bing Google
 
Aerial photo
No photo
 
Sectional chart

 
Airport distance calculator
Flying to Murdock Municipal Airport? Find the distance to fly.

From to 23Y

Sunrise and sunset
Times for 18-Dec-2017
 Local
(UTC-6)
 Zulu
(UTC)
Morning civil twilight07:2313:23
Sunrise07:5713:57
Sunset16:4022:40
Evening civil twilight17:1423:14

Current date and time
Zulu (UTC)  18-Dec-2017 16:49:35
Local (UTC-6)  18-Dec-2017 10:49:35
 
METAR
KBBB 
12nm NW 
181635Z AUTO 25007KT 10SM CLR 01/M02 A2971 RMK AO2
KBDH 
13nm SE 
181635Z AUTO 22010KT 10SM CLR 01/M01 A2972 RMK AO2
KMVE 
20nm SW 
181635Z AUTO 26006KT 10SM CLR 02/M01 A2971 RMK AO2
TAF
KAXN 
39nm N 
181130Z 1812/1912 21009KT P6SM BKN200 FM181900 22013KT P6SM BKN120 FM190400 29013KT P6SM SCT025 OVC045 FM190900 31013KT P6SM SCT120
KRWF 
43nm S 
181130Z 1812/1912 21010KT P6SM BKN200 FM181700 23014KT P6SM BKN200 FM190700 28011KT P6SM SCT250 FM190900 31010KT P6SM FEW250
NOTAMs
Click for the latest NOTAMs
NOTAMs are issued by the DoD/FAA and will open in a separate window not controlled by AirNav.

 

 
 

Would you like to see your business listed on this page?

 If your business provides an interesting product or service to pilots, flight crews, aircraft, or users of the Murdock Municipal Airport, you should consider listing it here.  To start the listing process, click on the button below
 
Add a business
 

Other Pages about Murdock Municipal Airport

PDF page(s) from the Minnesota Airport Directory
 
Update a link
 
Copyright © AirNav, LLC. All rights reserved. Privacy Policy  Contact